logo
Search for airport 
image banner adimage banner adimage banner ad
image banner ad

SBMA - João Correa Da Rocha

Located in Marabá, Brazil

ICAO - SBMA, IATA - MAB

Data provided by Airmate  

General information

Coordinates: S5°22'5" W49°8'17"
Elevation is 357 feet MSL.
Magnetic variation is -20.713747341° East
View others Airports in Pará

Operational data

Special qualification required
Current time UTC:
Current local time:
Weather
METAR: SBMA 251800Z 20004KT 9999 FEW025 35/21 Q1010
TAF: TAF SBMA 251600Z 2518/2606 27005KT 9999 FEW020 TX34/2518Z TN25/2605Z BECMG 2518/2520 22005KT BECMG 2600/2602 33005KT FEW015 RMK PHC
View NOTAMs / SUP AIP / TFR affecting this airport [VIEW]
Communications frequencies: [VIEW]

Runways:

RWY identifierQFULength (ft)Width (ft)SurfaceLDA (ft)
256562148ASPH
076562148ASPH

Airport contact information

Address: Marabá Brazil

Satellite view of SBMA